Time;durP1;ratioP1;P1;durP2;ratioP2;P2;SDS_P1;SDS_P2;PMS_P1;PMS_P2;Temp;Humidity;BMP_temperature;BMP_pressure;BME280_temperature;BME280_humidity;BME280_pressure;Samples;Min_cycle;Max_cycle;Signal;HPM_P1;HPM_P2
2021/10/28 00:12:29;;;;;;;0.60;0.60;;;11.80;99.90;;;;;;4428172;32;20069;-68
2021/10/28 00:14:40;;;;;;;0.50;0.50;;;11.70;99.90;;;;;;4420991;32;20423;-68
2021/10/28 00:17:11;;;;;;;0.60;0.60;;;11.40;99.90;;;;;;4443952;32;20064;-69
2021/10/28 00:19:39;;;;;;;0.50;0.50;;;11.40;99.90;;;;;;4443858;32;20068;-69
2021/10/28 00:22:06;;;;;;;0.60;0.60;;;11.40;99.90;;;;;;4443977;32;20081;-69
2021/10/28 00:24:31;;;;;;;0.35;0.35;;;11.40;99.90;;;;;;4443718;32;20073;-69
2021/10/28 00:26:58;;;;;;;1.20;1.02;;;11.30;99.90;;;;;;4443586;32;20518;-68
2021/10/28 00:29:23;;;;;;;0.40;0.40;;;11.30;99.90;;;;;;4443253;32;20073;-68
2021/10/28 00:31:50;;;;;;;4.53;0.80;;;11.30;99.90;;;;;;4443590;32;20068;-69
2021/10/28 00:34:17;;;;;;;0.32;0.32;;;11.20;99.90;;;;;;4444918;32;20453;-69
2021/10/28 00:36:44;;;;;;;0.70;0.70;;;11.00;99.90;;;;;;4442921;32;20499;-69
2021/10/28 00:39:13;;;;;;;0.45;0.45;;;11.10;99.90;;;;;;4437647;32;20072;-69
2021/10/28 00:41:39;;;;;;;0.35;0.35;;;11.20;99.90;;;;;;4443433;32;20120;-69
2021/10/28 00:44:06;;;;;;;0.88;0.70;;;11.10;99.90;;;;;;4443461;32;20082;-69
2021/10/28 00:46:34;;;;;;;0.40;0.40;;;11.00;99.90;;;;;;4443269;32;20085;-69
2021/10/28 00:49:02;;;;;;;0.50;0.50;;;10.90;99.90;;;;;;4443249;32;20056;-69
2021/10/28 00:51:29;;;;;;;0.40;0.40;;;11.00;99.90;;;;;;4440514;32;20376;-69
2021/10/28 00:53:57;;;;;;;2.55;0.65;;;11.00;99.90;;;;;;4443312;32;20132;-69
2021/10/28 00:56:25;;;;;;;0.30;0.30;;;10.90;99.90;;;;;;4443236;32;20487;-69
2021/10/28 00:58:51;;;;;;;2.83;0.60;;;10.90;99.90;;;;;;4443400;32;20306;-69
2021/10/28 01:01:17;;;;;;;0.70;0.70;;;10.90;99.90;;;;;;4443226;32;20172;-69
2021/10/28 01:03:44;;;;;;;0.40;0.40;;;10.90;99.90;;;;;;4434888;32;20066;-69
2021/10/28 01:06:12;;;;;;;0.47;0.47;;;11.00;99.90;;;;;;4428744;32;20558;-69
2021/10/28 01:08:41;;;;;;;1.10;0.98;;;10.90;99.90;;;;;;4427622;32;20125;-69
2021/10/28 01:11:07;;;;;;;0.57;0.50;;;10.80;99.90;;;;;;4428148;32;20086;-69
2021/10/28 01:13:34;;;;;;;0.50;0.50;;;10.70;99.90;;;;;;4428900;32;20555;-69
2021/10/28 01:16:00;;;;;;;8.23;1.70;;;10.70;99.90;;;;;;4433875;32;20139;-69
2021/10/28 01:18:26;;;;;;;0.40;0.40;;;10.80;99.90;;;;;;4443151;32;20173;-69
2021/10/28 01:20:54;;;;;;;0.50;0.50;;;10.60;99.90;;;;;;4443049;32;20139;-69
2021/10/28 01:23:21;;;;;;;0.52;0.52;;;10.70;99.90;;;;;;4443424;32;20510;-69
2021/10/28 01:25:54;;;;;;;0.55;0.55;;;10.60;99.90;;;;;;4443038;32;20136;-69
2021/10/28 01:28:21;;;;;;;0.40;0.40;;;10.60;99.90;;;;;;4442622;32;20549;-69
2021/10/28 01:30:49;;;;;;;0.52;0.52;;;10.50;99.90;;;;;;4440277;32;20448;-69
2021/10/28 01:33:15;;;;;;;8.98;0.70;;;10.40;99.90;;;;;;4433779;32;20073;-69
2021/10/28 01:35:40;;;;;;;1.85;0.65;;;10.30;99.90;;;;;;4428391;32;20121;-69
2021/10/28 01:38:07;;;;;;;0.40;0.40;;;10.30;99.90;;;;;;4438090;32;20061;-69
2021/10/28 01:40:33;;;;;;;0.40;0.40;;;10.40;99.90;;;;;;4443273;32;20073;-69
2021/10/28 01:42:58;;;;;;;0.40;0.40;;;10.40;99.90;;;;;;4443248;32;20526;-69
2021/10/28 01:45:23;;;;;;;1.17;0.62;;;10.40;99.90;;;;;;4445445;32;20085;-69
2021/10/28 01:47:49;;;;;;;0.47;0.47;;;10.40;99.90;;;;;;4445592;32;20466;-69
2021/10/28 01:50:15;;;;;;;0.80;0.80;;;10.50;99.90;;;;;;4445674;32;20066;-69
2021/10/28 01:52:40;;;;;;;0.40;0.40;;;10.30;99.90;;;;;;4444670;32;20142;-69
2021/10/28 01:55:09;;;;;;;0.60;0.60;;;10.20;99.90;;;;;;4443657;32;20073;-69
2021/10/28 01:57:35;;;;;;;0.45;0.45;;;10.20;99.90;;;;;;4445817;32;20068;-69
2021/10/28 02:00:00;;;;;;;0.43;0.43;;;10.10;99.90;;;;;;4445733;32;20119;-69
2021/10/28 02:02:26;;;;;;;2.65;0.55;;;10.10;99.90;;;;;;4444443;32;20133;-69
2021/10/28 02:04:51;;;;;;;0.50;0.50;;;9.90;99.90;;;;;;4437853;32;20077;-69
2021/10/28 02:07:17;;;;;;;0.40;0.40;;;9.80;99.90;;;;;;4446291;32;20100;-69
2021/10/28 02:09:42;;;;;;;3.25;0.98;;;9.70;99.90;;;;;;4445292;32;20367;-69
2021/10/28 02:12:08;;;;;;;0.47;0.47;;;9.90;99.90;;;;;;4445291;32;20384;-69
2021/10/28 02:14:34;;;;;;;0.37;0.37;;;10.00;99.90;;;;;;4443378;32;20076;-69
2021/10/28 02:16:59;;;;;;;0.50;0.50;;;9.90;99.90;;;;;;4443678;32;20077;-69
2021/10/28 02:19:25;;;;;;;1.80;0.60;;;9.90;99.90;;;;;;4445075;32;20069;-69
2021/10/28 02:21:50;;;;;;;0.35;0.35;;;9.70;99.90;;;;;;4441814;32;20075;-69
2021/10/28 02:24:16;;;;;;;0.50;0.50;;;9.60;99.90;;;;;;4441370;32;20072;-69
2021/10/28 02:26:42;;;;;;;0.68;0.68;;;9.60;99.90;;;;;;4444862;32;20073;-69
2021/10/28 02:29:08;;;;;;;0.40;0.40;;;9.60;99.90;;;;;;4444962;32;20073;-69
2021/10/28 02:31:35;;;;;;;1.08;0.88;;;9.60;99.90;;;;;;4445720;32;20086;-69
2021/10/28 02:34:00;;;;;;;0.43;0.43;;;9.60;99.90;;;;;;4445938;32;20057;-69
2021/10/28 02:36:26;;;;;;;1.20;0.68;;;9.60;99.90;;;;;;4445064;32;20407;-69
2021/10/28 02:38:51;;;;;;;1.67;1.40;;;9.60;99.90;;;;;;4444832;32;20065;-69
2021/10/28 02:41:17;;;;;;;11.73;1.33;;;9.50;99.90;;;;;;4445050;32;20081;-69
2021/10/28 02:43:42;;;;;;;2.65;0.80;;;9.60;99.90;;;;;;4444776;32;20085;-69
2021/10/28 02:46:08;;;;;;;0.55;0.55;;;9.60;99.90;;;;;;4444554;32;20081;-69
2021/10/28 02:48:34;;;;;;;2.97;0.75;;;9.60;99.90;;;;;;4444618;32;20123;-69
2021/10/28 02:50:59;;;;;;;0.47;0.47;;;9.70;99.90;;;;;;4445046;32;20077;-69
2021/10/28 02:53:25;;;;;;;0.95;0.70;;;9.70;99.90;;;;;;4444714;32;20131;-69
2021/10/28 02:55:50;;;;;;;0.60;0.60;;;9.60;99.90;;;;;;4444214;32;20068;-69
2021/10/28 02:58:17;;;;;;;0.77;0.77;;;9.70;99.90;;;;;;4445971;32;20069;-69
2021/10/28 03:00:43;;;;;;;0.40;0.40;;;9.70;99.90;;;;;;4445550;32;20174;-69
2021/10/28 03:03:10;;;;;;;4.62;0.70;;;9.50;99.90;;;;;;4445306;32;20518;-69
2021/10/28 03:05:36;;;;;;;0.88;0.85;;;9.60;99.90;;;;;;4444620;32;20076;-69
2021/10/28 03:08:02;;;;;;;4.60;0.98;;;9.60;99.90;;;;;;4444424;32;20448;-69
2021/10/28 03:10:27;;;;;;;0.60;0.60;;;9.50;99.90;;;;;;4444451;32;20156;-69
2021/10/28 03:12:54;;;;;;;0.70;0.70;;;9.60;99.90;;;;;;4444284;32;20068;-69
2021/10/28 03:15:20;;;;;;;0.40;0.40;;;9.50;99.90;;;;;;4444616;32;20061;-69
2021/10/28 03:26:02;;;;;;;0.80;0.70;;;9.40;99.90;;;;;;4432493;32;20130;-69
2021/10/28 03:28:28;;;;;;;1.77;0.65;;;9.50;99.90;;;;;;4443786;32;20522;-69
2021/10/28 03:30:53;;;;;;;1.30;0.70;;;9.60;99.90;;;;;;4444034;32;20073;-69
2021/10/28 03:33:22;;;;;;;4.37;1.33;;;9.60;99.90;;;;;;4443865;32;20069;-69
2021/10/28 03:35:48;;;;;;;0.50;0.50;;;9.50;99.90;;;;;;4443988;32;20115;-69
2021/10/28 03:38:20;;;;;;;1.75;0.85;;;9.30;99.90;;;;;;4432648;32;20062;-69
2021/10/28 03:44:07;;;;;;;0.80;0.80;;;9.40;99.90;;;;;;4420579;32;20549;-69
2021/10/28 03:52:59;;;;;;;0.60;0.60;;;9.30;99.90;;;;;;4433309;32;20245;-69
2021/10/28 03:54:31;;;;;;;2.28;0.70;;;9.40;99.90;;;;;;4432726;32;20069;-69
2021/10/28 03:59:11;;;;;;;2.45;1.02;;;9.20;99.90;;;;;;4432264;32;20104;-68
2021/10/28 03:59:56;;;;;;;0.45;0.45;;;9.10;99.90;;;;;;4431978;32;20066;-69
2021/10/28 04:05:13;;;;;;;0.40;0.40;;;9.20;99.90;;;;;;4443673;32;20120;-69
2021/10/28 04:08:04;;;;;;;0.50;0.50;;;9.30;99.90;;;;;;4432371;32;20449;-69
2021/10/28 04:17:12;;;;;;;0.50;0.50;;;9.20;99.90;;;;;;4433332;32;20164;-69
2021/10/28 04:18:51;;;;;;;1.27;0.70;;;9.20;99.90;;;;;;4447160;32;20072;-69
2021/10/28 04:29:35;;;;;;;0.57;0.57;;;9.10;99.90;;;;;;4442395;32;20068;-69
2021/10/28 04:32:02;;;;;;;0.47;0.47;;;9.00;99.90;;;;;;4440668;32;84337;-69
2021/10/28 04:34:27;;;;;;;0.60;0.60;;;8.90;99.90;;;;;;4443378;32;20136;-69
2021/10/28 04:36:53;;;;;;;0.77;0.62;;;8.90;99.90;;;;;;4443411;32;20112;-69
2021/10/28 04:39:19;;;;;;;4.47;0.90;;;8.80;99.90;;;;;;4443949;32;20533;-70
2021/10/28 04:41:44;;;;;;;0.50;0.50;;;8.90;99.90;;;;;;4443968;32;20061;-69
2021/10/28 04:44:12;;;;;;;0.50;0.50;;;8.80;99.90;;;;;;4443525;32;20073;-69
2021/10/28 04:46:39;;;;;;;27.62;0.65;;;8.70;99.90;;;;;;4444841;32;20513;-69
2021/10/28 04:49:05;;;;;;;0.60;0.60;;;8.60;99.90;;;;;;4444753;32;20597;-70
2021/10/28 04:51:31;;;;;;;0.80;0.77;;;8.50;99.90;;;;;;4444406;32;20057;-69
2021/10/28 04:53:56;;;;;;;0.50;0.50;;;8.50;99.90;;;;;;4443445;32;20081;-69
2021/10/28 04:56:22;;;;;;;0.60;0.60;;;8.50;99.90;;;;;;4443185;32;20519;-69
2021/10/28 04:58:47;;;;;;;0.50;0.50;;;8.40;99.90;;;;;;4444434;32;20069;-69
2021/10/28 05:01:13;;;;;;;0.60;0.60;;;8.40;99.90;;;;;;4436782;32;20069;-69
2021/10/28 05:03:39;;;;;;;0.60;0.60;;;8.50;99.90;;;;;;4433674;32;20081;-69
2021/10/28 05:06:04;;;;;;;0.35;0.35;;;8.40;99.90;;;;;;4440644;32;20538;-69
2021/10/28 05:08:30;;;;;;;2.40;0.88;;;8.40;99.90;;;;;;4442843;32;20489;-69
2021/10/28 05:10:55;;;;;;;2.40;0.65;;;8.30;99.90;;;;;;4441758;32;20069;-69
2021/10/28 05:13:21;;;;;;;4.32;0.60;;;8.30;99.90;;;;;;4437004;32;20081;-69
2021/10/28 05:15:49;;;;;;;0.60;0.60;;;8.30;99.90;;;;;;4443110;32;20082;-69
2021/10/28 05:18:16;;;;;;;0.75;0.75;;;8.30;99.90;;;;;;4427310;32;20073;-69
2021/10/28 05:20:42;;;;;;;1.75;1.35;;;8.30;99.90;;;;;;4444488;32;20507;-68
2021/10/28 05:23:10;;;;;;;1.00;0.85;;;8.30;99.90;;;;;;4444267;32;20073;-68
2021/10/28 05:25:37;;;;;;;0.40;0.40;;;8.20;99.90;;;;;;4441272;32;20130;-68
2021/10/28 05:28:03;;;;;;;0.95;0.73;;;8.20;99.90;;;;;;4430309;32;20554;-68
2021/10/28 05:30:29;;;;;;;0.60;0.60;;;8.20;99.90;;;;;;4433708;32;20255;-69
2021/10/28 05:32:58;;;;;;;0.57;0.57;;;8.20;99.90;;;;;;4425337;32;20085;-68
2021/10/28 05:35:25;;;;;;;1.98;1.12;;;8.20;99.90;;;;;;4444365;32;20150;-68
2021/10/28 05:37:53;;;;;;;0.70;0.70;;;8.20;99.90;;;;;;4430734;32;20097;-68
2021/10/28 05:40:21;;;;;;;0.80;0.80;;;8.20;99.90;;;;;;4435210;32;20296;-68
2021/10/28 05:42:48;;;;;;;3.12;0.80;;;8.10;99.90;;;;;;4441622;32;20069;-68
2021/10/28 05:45:15;;;;;;;2.20;1.12;;;8.10;99.90;;;;;;4433798;32;20081;-69
2021/10/28 05:47:41;;;;;;;0.62;0.62;;;8.20;99.90;;;;;;4432882;32;20072;-68
2021/10/28 05:50:09;;;;;;;2.97;1.23;;;8.00;99.90;;;;;;4424068;32;20089;-68
2021/10/28 05:52:35;;;;;;;0.98;0.93;;;8.00;99.90;;;;;;4420473;32;20085;-68
2021/10/28 05:55:03;;;;;;;0.50;0.50;;;8.00;99.90;;;;;;4424475;32;20081;-68
2021/10/28 05:57:30;;;;;;;1.35;0.50;;;8.00;99.90;;;;;;4424020;32;20535;-68
2021/10/28 05:59:56;;;;;;;0.47;0.47;;;8.00;99.90;;;;;;4417706;32;20081;-68
2021/10/28 06:02:21;;;;;;;2.67;1.50;;;8.00;99.90;;;;;;4419061;32;20113;-68
2021/10/28 06:04:47;;;;;;;0.90;0.90;;;8.10;99.90;;;;;;4420082;32;20077;-68
2021/10/28 06:07:13;;;;;;;0.85;0.80;;;8.10;99.90;;;;;;4423779;32;20131;-69
2021/10/28 06:09:38;;;;;;;4.22;1.10;;;8.10;99.90;;;;;;4425736;32;20093;-69
2021/10/28 06:12:05;;;;;;;0.88;0.88;;;8.00;99.90;;;;;;4417902;32;20727;-69
2021/10/28 06:14:32;;;;;;;0.80;0.80;;;8.00;99.90;;;;;;4423054;32;20077;-69
2021/10/28 06:17:06;;;;;;;1.12;0.95;;;8.10;99.90;;;;;;4419983;32;20104;-69
2021/10/28 06:19:32;;;;;;;2.30;1.65;;;8.10;99.90;;;;;;4421790;32;20191;-69
2021/10/28 06:21:57;;;;;;;0.73;0.68;;;8.10;99.90;;;;;;4424183;32;20160;-69
2021/10/28 06:24:23;;;;;;;1.62;0.65;;;8.10;99.90;;;;;;4421378;32;20073;-69
2021/10/28 06:26:49;;;;;;;1.10;0.75;;;8.10;99.90;;;;;;4426657;32;20452;-69
2021/10/28 06:29:14;;;;;;;1.37;0.80;;;8.10;99.90;;;;;;4423831;32;20081;-69
2021/10/28 06:31:41;;;;;;;0.60;0.60;;;8.00;99.90;;;;;;4420041;32;20089;-69
2021/10/28 06:34:10;;;;;;;0.60;0.60;;;8.10;99.90;;;;;;4420177;32;20097;-69
2021/10/28 06:36:37;;;;;;;0.70;0.68;;;8.00;99.90;;;;;;4422674;32;20065;-69
2021/10/28 06:39:04;;;;;;;8.90;1.30;;;8.00;99.90;;;;;;4419537;32;20089;-69
2021/10/28 06:41:30;;;;;;;2.67;0.90;;;8.10;99.90;;;;;;4425745;32;20093;-69
2021/10/28 06:43:59;;;;;;;0.60;0.60;;;8.10;99.90;;;;;;4426535;32;20064;-69
2021/10/28 06:46:26;;;;;;;1.40;0.85;;;8.10;99.90;;;;;;4426925;32;21032;-68
2021/10/28 06:48:51;;;;;;;0.68;0.68;;;8.10;99.90;;;;;;4422063;32;20090;-68
2021/10/28 06:51:18;;;;;;;4.93;1.37;;;8.10;99.90;;;;;;4421752;32;20102;-68
2021/10/28 06:53:55;;;;;;;0.50;0.50;;;8.10;99.90;;;;;;4421152;32;20241;-68
2021/10/28 07:02:51;;;;;;;0.55;0.55;;;8.20;99.90;;;;;;4409761;32;20570;-68
2021/10/28 07:04:37;;;;;;;1.98;1.12;;;8.30;99.90;;;;;;4413110;32;20989;-68
2021/10/28 07:07:02;;;;;;;0.75;0.70;;;8.40;99.90;;;;;;4419474;32;20085;-69
2021/10/28 07:09:32;;;;;;;0.60;0.60;;;8.40;99.90;;;;;;4424362;32;20084;-68
2021/10/28 07:12:10;;;;;;;0.68;0.68;;;8.30;99.90;;;;;;4426920;32;20514;-68
2021/10/28 07:14:36;;;;;;;0.40;0.40;;;8.40;99.90;;;;;;4428928;32;20443;-69
2021/10/28 07:20:07;;;;;;;0.75;0.75;;;8.40;99.90;;;;;;4420402;32;20362;-69
2021/10/28 07:24:51;;;;;;;3.03;0.75;;;8.50;99.90;;;;;;4426591;32;20874;-68
2021/10/28 07:25:29;;;;;;;1.25;0.77;;;8.60;99.90;;;;;;4419489;32;20162;-68
2021/10/28 07:30:33;;;;;;;0.90;0.60;;;8.70;99.90;;;;;;4416009;32;20440;-68
2021/10/28 07:34:06;;;;;;;2.90;0.85;;;8.80;99.90;;;;;;4426085;32;20109;-71
2021/10/28 07:38:35;;;;;;;1.27;0.70;;;8.90;99.90;;;;;;4429056;32;20081;-70
2021/10/28 07:55:04;;;;;;;1.02;0.93;;;8.90;99.90;;;;;;4419228;32;20206;-69
2021/10/28 07:56:17;;;;;;;1.12;0.85;;;9.40;99.90;;;;;;4410216;32;21455;-69
2021/10/28 07:57:47;;;;;;;1.20;0.77;;;9.60;99.90;;;;;;4413381;32;20156;-69
2021/10/28 08:00:29;;;;;;;0.70;0.70;;;9.60;99.90;;;;;;4428020;32;20191;-69
2021/10/28 08:05:21;;;;;;;0.52;0.52;;;9.80;99.90;;;;;;4423947;32;20076;-69
2021/10/28 08:13:32;;;;;;;3.35;0.70;;;9.90;99.90;;;;;;4419803;32;20106;-69
2021/10/28 08:14:16;;;;;;;2.30;0.73;;;10.10;99.90;;;;;;4425765;32;20489;-69
2021/10/28 08:18:50;;;;;;;0.52;0.52;;;10.10;99.90;;;;;;4432711;32;20582;-68
2021/10/28 08:28:49;;;;;;;0.98;0.85;;;10.20;99.90;;;;;;4428740;32;20101;-69
2021/10/28 08:30:19;;;;;;;1.52;0.73;;;10.20;99.90;;;;;;4427784;32;20101;-68
2021/10/28 08:32:45;;;;;;;0.80;0.65;;;10.30;99.90;;;;;;4433138;32;20081;-68
2021/10/28 08:35:11;;;;;;;0.60;0.60;;;10.40;99.90;;;;;;4433352;32;20065;-68
2021/10/28 08:37:43;;;;;;;1.70;1.12;;;10.40;99.90;;;;;;4432861;32;20184;-69
2021/10/28 08:40:10;;;;;;;3.75;1.05;;;10.50;99.90;;;;;;4434311;32;20114;-69
2021/10/28 08:42:38;;;;;;;0.55;0.55;;;10.50;99.90;;;;;;4433480;32;20542;-69
2021/10/28 08:45:04;;;;;;;1.70;1.02;;;10.70;99.90;;;;;;4438663;32;20396;-68
2021/10/28 08:47:30;;;;;;;1.90;1.08;;;10.80;99.90;;;;;;4436685;32;20072;-68
2021/10/28 08:50:03;;;;;;;0.80;0.80;;;10.90;99.90;;;;;;4440391;32;20407;-69
2021/10/28 08:55:12;;;;;;;3.20;0.85;;;11.10;99.90;;;;;;4437617;32;20085;-69
2021/10/28 08:57:57;;;;;;;1.45;0.90;;;11.30;99.90;;;;;;4441770;32;20586;-69
2021/10/28 09:23:56;;;;;;;2.42;0.75;;;12.10;99.90;;;;;;4429399;32;20081;-69
2021/10/28 09:24:11;;;;;;;1.23;0.85;;;12.40;99.90;;;;;;4428922;32;20080;-69
2021/10/28 09:26:28;;;;;;;0.77;0.55;;;12.70;99.90;;;;;;4424564;32;20109;-69
2021/10/28 09:29:12;;;;;;;1.75;0.98;;;12.90;99.90;;;;;;4430579;32;20105;-69
2021/10/28 09:31:48;;;;;;;2.20;1.08;;;13.20;99.90;;;;;;4422121;32;20590;-68
2021/10/28 09:34:30;;;;;;;0.98;0.88;;;13.30;99.90;;;;;;4425741;32;20081;-69
2021/10/28 09:43:36;;;;;;;0.70;0.70;;;13.50;99.90;;;;;;4425846;32;20831;-68
2021/10/28 09:51:04;;;;;;;0.43;0.43;;;13.90;99.90;;;;;;4416536;32;20492;-68
2021/10/28 09:53:35;;;;;;;0.75;0.75;;;14.10;99.90;;;;;;4432580;32;20712;-68
2021/10/28 09:58:04;;;;;;;1.25;0.98;;;14.10;99.90;;;;;;4431825;32;20458;-68
2021/10/28 09:58:47;;;;;;;9.68;1.02;;;14.00;99.90;;;;;;4421228;32;20113;-68
2021/10/28 10:01:35;;;;;;;1.40;0.80;;;14.20;99.90;;;;;;4424669;32;20545;-68
2021/10/28 10:04:05;;;;;;;25.65;0.90;;;14.10;99.90;;;;;;4420109;32;20089;-68
2021/10/28 10:06:37;;;;;;;0.97;0.97;;;14.10;99.90;;;;;;4421349;32;20244;-68
2021/10/28 10:09:03;;;;;;;0.50;0.50;;;14.10;99.90;;;;;;4429765;32;20622;-68
2021/10/28 10:11:29;;;;;;;0.60;0.60;;;13.90;99.90;;;;;;4429400;32;20981;-68
2021/10/28 10:13:57;;;;;;;4.15;1.00;;;13.90;99.90;;;;;;4425493;32;20526;-66
2021/10/28 10:16:23;;;;;;;0.62;0.50;;;14.10;99.90;;;;;;4425648;32;20089;-67
2021/10/28 10:18:50;;;;;;;1.70;0.95;;;14.00;99.90;;;;;;4424500;32;20155;-68
2021/10/28 10:21:29;;;;;;;2.67;1.00;;;13.90;99.90;;;;;;4422725;32;20183;-68
2021/10/28 10:24:19;;;;;;;0.80;0.80;;;14.10;99.90;;;;;;4426183;32;20132;-69
2021/10/28 10:30:09;;;;;;;0.62;0.62;;;14.30;99.90;;;;;;4426326;32;20085;-67
2021/10/28 11:03:20;;;;;;;0.98;0.93;;;14.60;99.90;;;;;;4406975;32;20113;-68
2021/10/28 11:15:58;;;;;;;1.23;0.93;;;15.00;99.90;;;;;;4430518;32;20593;-68
2021/10/28 11:19:51;;;;;;;7.28;1.77;;;15.80;99.90;;;;;;4427322;32;20202;-68
2021/10/28 11:20:49;;;;;;;1.02;0.82;;;16.20;99.90;;;;;;4419867;32;20085;-69
2021/10/28 11:23:31;;;;;;;1.75;1.08;;;16.50;99.90;;;;;;4424108;32;20069;-68
2021/10/28 11:26:06;;;;;;;0.50;0.50;;;16.80;99.90;;;;;;4427250;32;20096;-68
2021/10/28 11:32:43;;;;;;;1.40;0.60;;;17.40;99.90;;;;;;4418992;32;20061;-69
2021/10/28 12:01:48;;;;;;;0.37;0.37;;;19.80;99.90;;;;;;4419774;32;20195;-68
2021/10/28 12:14:31;;;;;;;0.25;0.25;;;19.90;99.90;;;;;;4427508;32;20102;-69
2021/10/28 12:16:10;;;;;;;1.75;0.65;;;20.10;99.90;;;;;;4423281;32;20097;-68
2021/10/28 12:17:27;;;;;;;9.02;1.80;;;20.20;99.90;;;;;;4425191;32;20081;-68
2021/10/28 12:23:13;;;;;;;0.35;0.30;;;20.90;99.80;;;;;;4430194;32;20081;-69
2021/10/28 12:27:54;;;;;;;0.32;0.32;;;20.90;99.90;;;;;;4427720;32;20104;-68
2021/10/28 12:28:40;;;;;;;0.20;0.20;;;21.10;99.90;;;;;;4426474;32;20084;-68
2021/10/28 12:43:51;;;;;;;0.37;0.37;;;21.30;98.10;;;;;;4409708;32;20148;-69
2021/10/28 12:46:23;;;;;;;0.57;0.43;;;21.10;98.70;;;;;;4433123;32;20101;-68
2021/10/28 12:55:09;;;;;;;0.30;0.30;;;20.00;99.20;;;;;;4434891;32;20088;-68
2021/10/28 13:02:08;;;;;;;0.40;0.40;;;19.70;99.60;;;;;;4429341;32;20069;-68
2021/10/28 13:02:35;;;;;;;0.65;0.52;;;19.40;99.90;;;;;;4428329;32;20562;-68
2021/10/28 13:04:21;;;;;;;0.65;0.52;;;19.50;99.90;;;;;;4430511;32;20089;-68
2021/10/28 13:28:05;;;;;;;2.45;0.62;;;19.20;99.90;;;;;;4430630;32;20065;-68
2021/10/28 13:35:44;;;;;;;1.33;0.60;;;18.20;99.90;;;;;;4438524;32;20139;-68
2021/10/28 13:36:17;;;;;;;1.08;0.88;;;18.10;99.90;;;;;;4434812;32;20065;-68
2021/10/28 13:49:57;;;;;;;0.43;0.43;;;17.80;99.90;;;;;;4437067;32;20065;-69
2021/10/28 13:53:45;;;;;;;0.50;0.50;;;17.80;99.90;;;;;;4440124;32;20081;-69
2021/10/28 14:17:59;;;;;;;1.23;0.88;;;17.40;99.90;;;;;;4440208;32;20094;-68
2021/10/28 14:20:39;;;;;;;0.40;0.40;;;17.50;99.90;;;;;;4440689;32;20514;-68
2021/10/28 14:22:43;;;;;;;1.58;0.65;;;17.70;99.90;;;;;;4441487;32;20061;-69
2021/10/28 14:25:46;;;;;;;0.60;0.60;;;17.70;99.90;;;;;;4435293;32;20090;-69
2021/10/28 14:28:15;;;;;;;0.30;0.30;;;17.60;99.90;;;;;;4434291;32;20061;-69
2021/10/28 14:36:19;;;;;;;0.52;0.50;;;17.80;99.90;;;;;;4433596;32;20054;-69
2021/10/28 15:00:50;;;;;;;0.50;0.50;;;16.80;99.90;;;;;;4433969;32;20431;-70
2021/10/28 15:03:08;;;;;;;0.75;0.75;;;16.70;99.90;;;;;;4442639;32;20089;-70
2021/10/28 15:27:46;;;;;;;14.35;2.42;;;15.60;99.90;;;;;;4442828;32;20119;-69
2021/10/28 15:30:17;;;;;;;0.40;0.40;;;15.60;99.90;;;;;;4445574;32;20077;-68
2021/10/28 15:35:36;;;;;;;0.70;0.70;;;15.60;99.90;;;;;;4428527;32;20124;-70
2021/10/28 15:38:24;;;;;;;0.68;0.65;;;15.50;99.90;;;;;;4439600;32;20372;-70
2021/10/28 15:47:10;;;;;;;0.60;0.60;;;15.30;99.90;;;;;;4443507;32;20124;-69
2021/10/28 15:48:07;;;;;;;0.50;0.50;;;15.20;99.90;;;;;;4443286;32;20136;-70
2021/10/28 15:50:37;;;;;;;0.82;0.45;;;15.10;99.90;;;;;;4443148;32;20538;-69
2021/10/28 15:52:14;;;;;;;0.60;0.60;;;15.00;99.90;;;;;;4441954;32;20077;-69
2021/10/28 15:55:52;;;;;;;0.73;0.73;;;14.80;99.90;;;;;;4443095;32;20561;-69
2021/10/28 15:57:12;;;;;;;0.90;0.77;;;14.80;99.90;;;;;;4442965;32;20097;-69
2021/10/28 16:00:19;;;;;;;1.40;0.82;;;14.70;99.90;;;;;;4444286;32;20068;-69
2021/10/28 16:21:50;;;;;;;1.42;1.15;;;14.20;99.90;;;;;;4442708;32;20065;-69
2021/10/28 16:24:16;;;;;;;0.77;0.77;;;14.20;99.90;;;;;;4443391;32;20077;-69
2021/10/28 16:26:41;;;;;;;11.07;1.40;;;14.00;99.90;;;;;;4443375;32;20082;-69
2021/10/28 16:29:11;;;;;;;0.57;0.55;;;13.90;99.90;;;;;;4443819;32;20072;-69
2021/10/28 16:31:36;;;;;;;0.50;0.50;;;13.80;99.90;;;;;;4443371;32;20068;-69
2021/10/28 16:34:02;;;;;;;2.12;1.25;;;13.70;99.90;;;;;;4429448;32;20551;-69
2021/10/28 16:36:28;;;;;;;0.62;0.62;;;13.60;99.90;;;;;;4428090;32;20061;-69
2021/10/28 16:38:54;;;;;;;2.72;1.10;;;13.70;99.90;;;;;;4443520;32;20204;-69
2021/10/28 16:41:20;;;;;;;2.53;1.00;;;13.70;99.90;;;;;;4443805;32;20081;-69
2021/10/28 16:43:46;;;;;;;0.60;0.60;;;13.80;99.90;;;;;;4444282;32;20076;-69
2021/10/28 16:46:12;;;;;;;0.60;0.60;;;13.80;99.90;;;;;;4441781;32;20058;-69
2021/10/28 16:48:38;;;;;;;0.60;0.60;;;13.80;99.90;;;;;;4430459;32;20072;-69
2021/10/28 16:51:04;;;;;;;5.53;2.08;;;13.90;99.90;;;;;;4443626;32;20057;-69
2021/10/28 16:53:30;;;;;;;1.65;0.93;;;13.90;99.90;;;;;;4443260;32;20085;-69
2021/10/28 16:55:56;;;;;;;0.60;0.60;;;13.90;99.90;;;;;;4443294;32;20065;-69
2021/10/28 16:58:21;;;;;;;1.37;0.82;;;13.90;99.90;;;;;;4443982;32;20073;-69
2021/10/28 17:00:48;;;;;;;0.70;0.70;;;13.90;99.90;;;;;;4444074;32;20562;-69
2021/10/28 17:03:14;;;;;;;1.08;0.98;;;14.00;99.90;;;;;;4443458;32;20069;-69
2021/10/28 17:05:39;;;;;;;13.85;2.85;;;14.00;99.90;;;;;;4443139;32;20053;-69
2021/10/28 17:08:05;;;;;;;9.18;1.12;;;13.90;99.90;;;;;;4444040;32;20405;-69
2021/10/28 17:10:30;;;;;;;0.85;0.85;;;13.80;99.90;;;;;;4444799;32;20069;-69
2021/10/28 17:12:57;;;;;;;1.02;0.60;;;13.80;99.90;;;;;;4443970;32;20061;-69
2021/10/28 17:15:23;;;;;;;1.50;1.20;;;13.80;99.90;;;;;;4446056;32;20066;-69
2021/10/28 17:17:48;;;;;;;5.32;2.90;;;13.70;99.90;;;;;;4445556;32;20072;-69
2021/10/28 17:20:14;;;;;;;2.30;1.08;;;13.60;99.90;;;;;;4447039;32;20113;-69
2021/10/28 17:22:40;;;;;;;2.33;0.98;;;13.50;99.90;;;;;;4447173;32;20569;-69
2021/10/28 17:25:08;;;;;;;1.00;0.80;;;13.50;99.90;;;;;;4447138;32;20078;-69
2021/10/28 17:27:34;;;;;;;4.82;1.17;;;13.40;99.90;;;;;;4445244;32;20065;-69
2021/10/28 17:30:01;;;;;;;0.60;0.60;;;13.40;99.90;;;;;;4447156;32;20510;-70
2021/10/28 17:32:26;;;;;;;4.60;1.00;;;13.40;99.90;;;;;;4446178;32;20072;-70
2021/10/28 17:34:52;;;;;;;0.70;0.70;;;13.40;99.90;;;;;;4446281;32;20065;-69
2021/10/28 17:37:17;;;;;;;0.90;0.82;;;13.40;99.90;;;;;;4445783;32;20077;-69
2021/10/28 17:39:43;;;;;;;4.70;1.65;;;13.40;99.90;;;;;;4446562;32;20078;-69
2021/10/28 17:42:09;;;;;;;0.80;0.80;;;13.40;99.90;;;;;;4447176;32;20510;-69
2021/10/28 17:44:41;;;;;;;0.85;0.85;;;13.30;99.90;;;;;;4445942;32;20092;-69
2021/10/28 17:47:08;;;;;;;0.55;0.55;;;13.30;99.90;;;;;;4446179;32;20073;-68
2021/10/28 17:49:36;;;;;;;0.70;0.70;;;13.40;99.90;;;;;;4445407;32;20520;-68
2021/10/28 17:52:03;;;;;;;0.50;0.50;;;13.50;99.90;;;;;;4445785;32;20068;-69
2021/10/28 17:54:28;;;;;;;0.65;0.65;;;13.50;99.90;;;;;;4445086;32;20068;-69
2021/10/28 17:56:54;;;;;;;1.87;1.00;;;13.50;99.90;;;;;;4445369;32;20432;-69
2021/10/28 17:59:19;;;;;;;0.68;0.68;;;13.50;99.90;;;;;;4445382;32;20069;-68
2021/10/28 18:01:45;;;;;;;1.70;0.95;;;13.40;99.90;;;;;;4446229;32;20094;-68
2021/10/28 18:04:10;;;;;;;0.45;0.45;;;13.40;99.90;;;;;;4446559;32;20069;-68
2021/10/28 18:06:36;;;;;;;0.60;0.60;;;13.30;99.90;;;;;;4446396;32;20069;-68
2021/10/28 18:09:05;;;;;;;4.25;1.55;;;13.20;99.90;;;;;;4445013;32;20116;-68
2021/10/28 18:11:31;;;;;;;1.15;1.05;;;13.10;99.90;;;;;;4445212;32;20477;-68
2021/10/28 18:13:57;;;;;;;3.00;0.95;;;13.00;99.90;;;;;;4445657;32;20112;-68
2021/10/28 18:16:25;;;;;;;0.70;0.70;;;13.10;99.90;;;;;;4445061;32;20118;-70
2021/10/28 18:18:59;;;;;;;0.80;0.80;;;13.00;99.90;;;;;;4445199;32;20068;-68
2021/10/28 18:21:26;;;;;;;0.68;0.68;;;13.00;99.90;;;;;;4445260;32;20060;-68
2021/10/28 18:23:53;;;;;;;2.03;0.70;;;13.10;99.90;;;;;;4444996;32;20425;-68
2021/10/28 18:26:20;;;;;;;1.80;1.17;;;13.10;99.90;;;;;;4446345;32;20078;-68
2021/10/28 18:28:47;;;;;;;3.42;1.40;;;13.00;99.90;;;;;;4445690;32;20085;-68
2021/10/28 18:31:12;;;;;;;1.37;1.12;;;12.90;99.90;;;;;;4445891;32;20069;-69
2021/10/28 18:33:39;;;;;;;0.80;0.80;;;12.90;99.90;;;;;;4438310;32;20082;-69
2021/10/28 18:36:06;;;;;;;1.10;0.95;;;12.90;99.90;;;;;;4430218;32;20567;-68
2021/10/28 18:38:32;;;;;;;1.65;1.20;;;12.80;99.90;;;;;;4443652;32;20120;-68
2021/10/28 18:40:59;;;;;;;1.95;1.37;;;12.70;99.90;;;;;;4448278;32;20068;-69
2021/10/28 18:43:25;;;;;;;1.00;0.88;;;12.70;99.90;;;;;;4461080;32;20474;-68
2021/10/28 18:45:51;;;;;;;0.50;0.50;;;12.70;99.90;;;;;;4460434;32;20072;-70
2021/10/28 18:48:17;;;;;;;0.68;0.68;;;12.70;99.90;;;;;;4460317;32;20119;-69
2021/10/28 18:50:43;;;;;;;0.82;0.70;;;12.50;99.90;;;;;;4460126;32;20466;-69
2021/10/28 18:53:08;;;;;;;0.50;0.50;;;12.50;99.90;;;;;;4460225;32;20076;-70
2021/10/28 18:55:36;;;;;;;2.20;0.73;;;12.50;99.90;;;;;;4460909;32;20116;-68
2021/10/28 18:58:02;;;;;;;4.97;1.48;;;12.50;99.90;;;;;;4460385;32;20068;-70